createdAt,value
2022-11-05T00:00:07.503Z,354
2022-11-05T00:00:37.212Z,340
2022-11-05T00:01:21.325Z,340
2022-11-05T00:01:53.109Z,340
2022-11-05T00:02:25.059Z,340
2022-11-05T00:02:57.098Z,340
2022-11-05T00:03:29.280Z,340
2022-11-05T00:04:01.170Z,340
2022-11-05T00:04:33.033Z,343
2022-11-05T00:05:05.381Z,352
2022-11-05T00:05:37.170Z,351
2022-11-05T00:06:08.898Z,267
2022-11-05T00:06:41.031Z,316
2022-11-05T00:07:12.780Z,315
2022-11-05T00:07:44.967Z,314
2022-11-05T00:08:16.818Z,315
2022-11-05T00:08:48.894Z,315
2022-11-05T00:09:05.002Z,315
2022-11-05T00:09:48.842Z,315
2022-11-05T00:10:21.123Z,315
2022-11-05T00:10:52.685Z,315
2022-11-05T00:11:24.683Z,316
2022-11-05T00:11:56.747Z,315
2022-11-05T00:12:28.788Z,315
2022-11-05T00:13:00.614Z,315
2022-11-05T00:13:32.757Z,315
2022-11-05T00:14:04.762Z,315
2022-11-05T00:14:36.768Z,315
2022-11-05T00:15:09.384Z,315
2022-11-05T00:15:40.480Z,315
2022-11-05T00:16:12.537Z,316
2022-11-05T00:16:44.547Z,315
2022-11-05T00:17:16.658Z,315
2022-11-05T00:17:48.518Z,304
2022-11-05T00:18:20.606Z,297
2022-11-05T00:18:52.643Z,296
2022-11-05T00:19:24.402Z,297
2022-11-05T00:19:56.464Z,313
2022-11-05T00:20:28.567Z,313
2022-11-05T00:21:00.347Z,314
2022-11-05T00:21:32.267Z,313
2022-11-05T00:21:48.456Z,313
2022-11-05T00:22:32.210Z,313
2022-11-05T00:23:04.451Z,313
2022-11-05T00:23:36.324Z,313
2022-11-05T00:24:08.109Z,313
2022-11-05T00:24:40.115Z,313
2022-11-05T00:25:12.473Z,313
2022-11-05T00:25:44.176Z,313
2022-11-05T00:26:15.997Z,313
2022-11-05T00:26:48.040Z,313
2022-11-05T00:27:20.143Z,313
2022-11-05T00:27:52.063Z,314
2022-11-05T00:28:24.008Z,327
2022-11-05T00:28:56.132Z,327
2022-11-05T00:29:28.008Z,327
2022-11-05T00:29:59.931Z,293
2022-11-05T00:30:32.336Z,292
2022-11-05T00:30:48.040Z,292
2022-11-05T00:31:19.776Z,292
2022-11-05T00:31:35.944Z,292
2022-11-05T00:32:08.115Z,292
2022-11-05T00:32:39.799Z,292
2022-11-05T00:33:12.105Z,293
2022-11-05T00:33:43.705Z,292
2022-11-05T00:34:15.710Z,292
2022-11-05T00:34:47.826Z,292
2022-11-05T00:35:04.388Z,292
2022-11-05T00:35:35.784Z,292
2022-11-05T00:36:19.682Z,323
2022-11-05T00:36:51.809Z,296
2022-11-05T00:37:23.539Z,295
2022-11-05T00:37:55.672Z,295
2022-11-05T00:38:27.788Z,297
2022-11-05T00:38:59.607Z,317
2022-11-05T00:39:31.508Z,315
2022-11-05T00:40:04.588Z,316
2022-11-05T00:40:35.506Z,316
2022-11-05T00:41:07.760Z,319
2022-11-05T00:41:39.458Z,319
2022-11-05T00:42:11.500Z,308
2022-11-05T00:42:43.389Z,308
2022-11-05T00:43:15.525Z,308
2022-11-05T00:43:47.459Z,311
2022-11-05T00:44:04.231Z,313
2022-11-05T00:44:47.361Z,312
2022-11-05T00:45:19.973Z,312
2022-11-05T00:45:51.422Z,312
2022-11-05T00:46:23.140Z,312
2022-11-05T00:46:59.710Z,312
2022-11-05T00:47:27.383Z,311
2022-11-05T00:47:59.219Z,280
2022-11-05T00:48:31.066Z,292
2022-11-05T00:48:47.362Z,297
2022-11-05T00:49:19.019Z,296
2022-11-05T00:49:35.010Z,296
2022-11-05T00:50:07.475Z,297
2022-11-05T00:50:39.075Z,300
2022-11-05T00:51:11.255Z,300
2022-11-05T00:51:43.035Z,300
2022-11-05T00:52:15.114Z,300
2022-11-05T00:52:46.978Z,300
2022-11-05T00:53:03.780Z,300
2022-11-05T00:53:34.987Z,300
2022-11-05T00:54:18.951Z,300
2022-11-05T00:54:51.032Z,300
2022-11-05T00:55:23.081Z,301
2022-11-05T00:55:54.871Z,306
2022-11-05T00:56:27.302Z,306
2022-11-05T00:57:04.366Z,306
2022-11-05T00:57:30.755Z,306
2022-11-05T00:57:47.041Z,306
2022-11-05T00:58:30.823Z,306
2022-11-05T00:59:03.411Z,306
2022-11-05T00:59:34.711Z,306
2022-11-05T01:00:07.750Z,306
2022-11-05T01:00:38.603Z,306
2022-11-05T01:01:10.838Z,306
2022-11-05T01:01:42.955Z,306
2022-11-05T01:02:14.761Z,306
2022-11-05T01:02:46.777Z,306
2022-11-05T01:03:03.426Z,306
2022-11-05T01:03:51.503Z,306
2022-11-05T01:04:18.641Z,306
2022-11-05T01:04:50.397Z,306
2022-11-05T01:05:22.676Z,306
2022-11-05T01:05:54.499Z,306
2022-11-05T01:06:26.799Z,308
2022-11-05T01:06:58.348Z,307
2022-11-05T01:07:30.360Z,307
2022-11-05T01:08:03.436Z,307
2022-11-05T01:08:34.409Z,307
2022-11-05T01:09:06.359Z,307
2022-11-05T01:09:38.345Z,307
2022-11-05T01:10:10.590Z,307
2022-11-05T01:10:42.460Z,307
2022-11-05T01:11:14.158Z,307
2022-11-05T01:11:46.339Z,307
2022-11-05T01:12:03.319Z,307
2022-11-05T01:12:34.077Z,307
2022-11-05T01:13:18.698Z,307
2022-11-05T01:13:50.024Z,307
2022-11-05T01:14:22.132Z,307
2022-11-05T01:14:54.079Z,307
2022-11-05T01:15:26.531Z,307
2022-11-05T01:15:58.115Z,308
2022-11-05T01:16:29.992Z,309
2022-11-05T01:16:46.138Z,308
2022-11-05T01:17:30.011Z,308
2022-11-05T01:18:02.911Z,308
2022-11-05T01:18:33.836Z,308
2022-11-05T01:19:05.869Z,308
2022-11-05T01:19:37.891Z,308
2022-11-05T01:20:10.193Z,308
2022-11-05T01:20:41.796Z,308
2022-11-05T01:21:13.720Z,308
2022-11-05T01:21:45.832Z,308
2022-11-05T01:22:18.022Z,308
2022-11-05T01:22:49.581Z,308
2022-11-05T01:23:22.155Z,308
2022-11-05T01:23:53.730Z,308
2022-11-05T01:24:25.849Z,308
2022-11-05T01:24:57.789Z,308
2022-11-05T01:25:29.869Z,308
2022-11-05T01:25:45.837Z,308
2022-11-05T01:26:17.754Z,308
2022-11-05T01:26:33.686Z,308
2022-11-05T01:27:05.710Z,308
2022-11-05T01:27:37.727Z,308
2022-11-05T01:28:09.594Z,308
2022-11-05T01:28:41.547Z,308
2022-11-05T01:29:13.614Z,308
2022-11-05T01:29:45.445Z,308
2022-11-05T01:30:18.526Z,308
2022-11-05T01:30:49.428Z,308
2022-11-05T01:31:21.291Z,308
2022-11-05T01:31:53.395Z,308
2022-11-05T01:32:25.432Z,308
2022-11-05T01:32:57.463Z,308
2022-11-05T01:33:29.207Z,308
2022-11-05T01:33:45.438Z,308
2022-11-05T01:34:29.231Z,308
2022-11-05T01:35:01.759Z,308
2022-11-05T01:35:33.292Z,308
2022-11-05T01:36:05.174Z,308
2022-11-05T01:36:37.124Z,308
2022-11-05T01:37:09.140Z,308
2022-11-05T01:37:41.346Z,308
2022-11-05T01:38:12.967Z,308
2022-11-05T01:38:45.094Z,311
2022-11-05T01:39:17.101Z,310
2022-11-05T01:39:49.274Z,310
2022-11-05T01:40:21.274Z,310
2022-11-05T01:40:52.939Z,310
2022-11-05T01:41:25.097Z,310
2022-11-05T01:41:57.155Z,340
2022-11-05T01:42:28.854Z,333
2022-11-05T01:42:44.969Z,333
2022-11-05T01:43:16.872Z,333
2022-11-05T01:43:33.050Z,333
2022-11-05T01:44:04.949Z,333
2022-11-05T01:44:36.867Z,333
2022-11-05T01:45:09.679Z,335
2022-11-05T01:45:40.809Z,335
2022-11-05T01:46:12.635Z,335
2022-11-05T01:46:44.668Z,339
2022-11-05T01:47:00.987Z,338
2022-11-05T01:47:32.775Z,338
2022-11-05T01:48:16.819Z,288
2022-11-05T01:48:48.638Z,288
2022-11-05T01:49:20.546Z,288
2022-11-05T01:49:52.674Z,326
2022-11-05T01:50:25.082Z,288
2022-11-05T01:50:56.624Z,290
2022-11-05T01:51:28.516Z,309
2022-11-05T01:51:44.728Z,309
2022-11-05T01:52:28.565Z,309
2022-11-05T01:53:00.493Z,310
2022-11-05T01:53:32.349Z,309
2022-11-05T01:54:04.721Z,309
2022-11-05T01:54:36.581Z,309
2022-11-05T01:55:08.660Z,311
2022-11-05T01:55:40.292Z,311
2022-11-05T01:56:12.443Z,311
2022-11-05T01:56:44.402Z,311
2022-11-05T01:57:16.688Z,311
2022-11-05T01:57:48.304Z,311
2022-11-05T01:58:20.134Z,333
2022-11-05T01:58:52.441Z,332
2022-11-05T01:59:24.272Z,333
2022-11-05T01:59:56.194Z,280
2022-11-05T02:00:28.539Z,286
2022-11-05T02:01:00.122Z,287
2022-11-05T02:01:32.388Z,286
2022-11-05T02:02:04.710Z,287
2022-11-05T02:02:36.191Z,287
2022-11-05T02:03:08.539Z,287
2022-11-05T02:03:40.394Z,287
2022-11-05T02:04:12.027Z,286
2022-11-05T02:04:43.963Z,287
2022-11-05T02:05:00.133Z,286
2022-11-05T02:05:32.185Z,286
2022-11-05T02:06:15.996Z,286
2022-11-05T02:06:47.766Z,288
2022-11-05T02:07:19.741Z,288
2022-11-05T02:07:51.923Z,286
2022-11-05T02:08:23.803Z,286
2022-11-05T02:08:55.702Z,287
2022-11-05T02:09:27.910Z,283
2022-11-05T02:09:43.921Z,282
2022-11-05T02:10:28.283Z,283
2022-11-05T02:10:59.662Z,283
2022-11-05T02:11:31.733Z,283
2022-11-05T02:12:04.383Z,283
2022-11-05T02:12:35.702Z,283
2022-11-05T02:13:08.320Z,283
2022-11-05T02:13:39.510Z,283
2022-11-05T02:14:11.727Z,283
2022-11-05T02:14:43.590Z,283
2022-11-05T02:15:17.297Z,283
2022-11-05T02:15:47.778Z,332
2022-11-05T02:16:19.491Z,332
2022-11-05T02:16:51.618Z,332
2022-11-05T02:17:23.518Z,332
2022-11-05T02:17:55.500Z,332
2022-11-05T02:18:27.518Z,332
2022-11-05T02:18:43.551Z,332
2022-11-05T02:19:15.390Z,332
2022-11-05T02:19:31.500Z,332
2022-11-05T02:20:04.488Z,332
2022-11-05T02:20:35.222Z,332
2022-11-05T02:21:07.513Z,332
2022-11-05T02:21:39.405Z,333
2022-11-05T02:22:11.268Z,333
2022-11-05T02:22:43.213Z,333
2022-11-05T02:22:59.271Z,333
2022-11-05T02:23:31.326Z,333
2022-11-05T02:24:15.253Z,333
2022-11-05T02:24:47.142Z,333
2022-11-05T02:25:19.443Z,333
2022-11-05T02:25:51.095Z,333
2022-11-05T02:26:23.099Z,333
2022-11-05T02:26:55.035Z,333
2022-11-05T02:27:27.180Z,333
2022-11-05T02:27:43.188Z,333
2022-11-05T02:28:27.304Z,333
2022-11-05T02:28:59.137Z,333
2022-11-05T02:29:30.894Z,333
2022-11-05T02:30:05.889Z,333
2022-11-05T02:30:34.991Z,333
2022-11-05T02:31:07.207Z,333
2022-11-05T02:31:38.947Z,333
2022-11-05T02:32:11.110Z,333
2022-11-05T02:32:43.004Z,333
2022-11-05T02:33:14.869Z,333
2022-11-05T02:33:47.005Z,333
2022-11-05T02:34:18.780Z,333
2022-11-05T02:34:50.803Z,333
2022-11-05T02:35:28.048Z,333
2022-11-05T02:35:54.608Z,333
2022-11-05T02:36:26.670Z,333
2022-11-05T02:36:42.890Z,333
2022-11-05T02:37:14.600Z,333
2022-11-05T02:37:30.708Z,333
2022-11-05T02:38:03.172Z,335
2022-11-05T02:38:34.577Z,334
2022-11-05T02:39:07.905Z,334
2022-11-05T02:39:40.071Z,334
2022-11-05T02:40:10.858Z,334
2022-11-05T02:40:42.621Z,334
2022-11-05T02:40:59.016Z,334
2022-11-05T02:41:30.501Z,334
2022-11-05T02:42:14.554Z,334
2022-11-05T02:42:46.313Z,334
2022-11-05T02:43:18.429Z,334
2022-11-05T02:43:50.328Z,334
2022-11-05T02:44:22.493Z,334
2022-11-05T02:44:54.283Z,334
2022-11-05T02:45:26.743Z,333
2022-11-05T02:45:42.585Z,333
2022-11-05T02:46:26.312Z,333
2022-11-05T02:46:58.466Z,333
2022-11-05T02:47:30.225Z,333
2022-11-05T02:48:02.805Z,333
2022-11-05T02:48:34.177Z,333
2022-11-05T02:49:06.264Z,333
2022-11-05T02:49:38.205Z,333
2022-11-05T02:50:10.341Z,333
2022-11-05T02:50:42.254Z,334
2022-11-05T02:51:14.169Z,333
2022-11-05T02:51:45.934Z,333
2022-11-05T02:52:18.199Z,333
2022-11-05T02:52:49.928Z,333
2022-11-05T02:53:22.217Z,333
2022-11-05T02:53:53.908Z,333
2022-11-05T02:54:26.034Z,333
2022-11-05T02:54:42.222Z,333
2022-11-05T02:55:14.025Z,333
2022-11-05T02:55:29.829Z,333
2022-11-05T02:56:02.229Z,333
2022-11-05T02:56:33.823Z,333
2022-11-05T02:57:05.759Z,333
2022-11-05T02:57:38.022Z,333
2022-11-05T02:58:09.731Z,333
2022-11-05T02:58:41.896Z,333
2022-11-05T02:58:57.932Z,333
2022-11-05T02:59:29.598Z,333
2022-11-05T03:00:14.672Z,333
2022-11-05T03:00:45.556Z,333
2022-11-05T03:01:17.875Z,333
2022-11-05T03:01:49.635Z,333
2022-11-05T03:02:21.968Z,333
2022-11-05T03:02:53.521Z,333
2022-11-05T03:03:10.068Z,333
2022-11-05T03:03:41.747Z,333
2022-11-05T03:04:25.538Z,333
2022-11-05T03:04:57.833Z,333
2022-11-05T03:05:29.631Z,333
2022-11-05T03:06:01.536Z,333
2022-11-05T03:06:33.524Z,333
2022-11-05T03:07:05.433Z,333
2022-11-05T03:07:37.342Z,333
2022-11-05T03:08:09.353Z,334
2022-11-05T03:08:41.495Z,333
2022-11-05T03:09:13.294Z,333
2022-11-05T03:09:45.172Z,334
2022-11-05T03:10:17.615Z,333
2022-11-05T03:10:49.253Z,333
2022-11-05T03:11:21.297Z,333
2022-11-05T03:11:53.232Z,334
2022-11-05T03:12:25.049Z,334
2022-11-05T03:12:57.340Z,334
2022-11-05T03:13:29.253Z,334
2022-11-05T03:14:01.076Z,334
2022-11-05T03:14:33.066Z,334
2022-11-05T03:15:06.938Z,333
2022-11-05T03:15:37.264Z,333
2022-11-05T03:16:09.105Z,333
2022-11-05T03:16:41.303Z,334
2022-11-05T03:16:57.228Z,333
2022-11-05T03:17:28.902Z,333
2022-11-05T03:18:13.092Z,333
2022-11-05T03:18:44.821Z,333
2022-11-05T03:19:16.772Z,333
2022-11-05T03:19:49.110Z,333
2022-11-05T03:20:21.188Z,333
2022-11-05T03:20:52.936Z,333
2022-11-05T03:21:24.882Z,333
2022-11-05T03:21:41.065Z,333
2022-11-05T03:22:24.827Z,333
2022-11-05T03:22:56.859Z,333
2022-11-05T03:23:28.661Z,333
2022-11-05T03:24:00.866Z,333
2022-11-05T03:24:32.793Z,333
2022-11-05T03:25:05.230Z,333
2022-11-05T03:25:36.566Z,344
2022-11-05T03:26:08.705Z,337
2022-11-05T03:26:40.726Z,336
2022-11-05T03:27:12.871Z,335
2022-11-05T03:27:44.473Z,335
2022-11-05T03:28:16.539Z,335
2022-11-05T03:28:48.765Z,335
2022-11-05T03:29:25.548Z,335
2022-11-05T03:29:52.436Z,332
2022-11-05T03:30:24.721Z,333
2022-11-05T03:30:40.724Z,333
2022-11-05T03:31:12.473Z,333
2022-11-05T03:31:28.606Z,333
2022-11-05T03:32:00.266Z,333
2022-11-05T03:32:32.475Z,333
2022-11-05T03:33:04.742Z,341
2022-11-05T03:33:36.318Z,340
2022-11-05T03:34:08.412Z,340
2022-11-05T03:34:40.295Z,340
2022-11-05T03:34:56.482Z,340
2022-11-05T03:35:28.533Z,340
2022-11-05T03:36:12.658Z,340
2022-11-05T03:36:44.190Z,339
2022-11-05T03:37:16.167Z,340
2022-11-05T03:37:48.515Z,339
2022-11-05T03:38:20.167Z,340
2022-11-05T03:38:52.224Z,339
2022-11-05T03:39:24.144Z,339
2022-11-05T03:39:40.302Z,340
2022-11-05T03:40:24.192Z,340
2022-11-05T03:40:56.278Z,340
2022-11-05T03:41:27.993Z,340
2022-11-05T03:41:59.872Z,353
2022-11-05T03:42:31.901Z,350
2022-11-05T03:43:04.548Z,349
2022-11-05T03:43:35.794Z,349
2022-11-05T03:44:08.005Z,322
2022-11-05T03:44:39.999Z,322
2022-11-05T03:45:12.849Z,322
2022-11-05T03:45:43.828Z,322
2022-11-05T03:46:15.785Z,322
2022-11-05T03:46:47.946Z,322
2022-11-05T03:47:19.805Z,321
2022-11-05T03:47:51.646Z,321
2022-11-05T03:48:23.673Z,321
2022-11-05T03:48:40.025Z,321
2022-11-05T03:49:11.685Z,321
2022-11-05T03:49:27.854Z,321
2022-11-05T03:49:59.500Z,321
2022-11-05T03:50:34.784Z,336
2022-11-05T03:51:04.098Z,336
2022-11-05T03:51:35.652Z,337
2022-11-05T03:52:07.882Z,336
2022-11-05T03:52:39.491Z,336
2022-11-05T03:52:55.789Z,336
2022-11-05T03:53:27.815Z,336
2022-11-05T03:54:11.709Z,336
2022-11-05T03:54:43.491Z,336
2022-11-05T03:55:15.704Z,336
2022-11-05T03:55:47.682Z,336
2022-11-05T03:56:19.397Z,336
2022-11-05T03:56:51.406Z,336
2022-11-05T03:57:23.395Z,336
2022-11-05T03:57:55.447Z,336
2022-11-05T03:58:27.459Z,336
2022-11-05T03:58:59.525Z,336
2022-11-05T03:59:31.233Z,336
2022-11-05T04:00:06.003Z,336
2022-11-05T04:00:35.272Z,336
2022-11-05T04:01:07.448Z,336
2022-11-05T04:01:39.273Z,336
2022-11-05T04:01:55.497Z,336
2022-11-05T04:02:39.320Z,336
2022-11-05T04:03:11.686Z,336
2022-11-05T04:03:43.332Z,336
2022-11-05T04:04:14.983Z,336
2022-11-05T04:04:46.947Z,336
2022-11-05T04:05:28.990Z,336
2022-11-05T04:05:51.059Z,336
2022-11-05T04:06:22.826Z,336
2022-11-05T04:06:39.203Z,336
2022-11-05T04:07:11.174Z,336
2022-11-05T04:07:55.063Z,336
2022-11-05T04:08:26.934Z,336
2022-11-05T04:08:58.915Z,336
2022-11-05T04:09:30.876Z,336
2022-11-05T04:10:04.397Z,336
2022-11-05T04:10:34.911Z,336
2022-11-05T04:11:06.679Z,336
2022-11-05T04:11:38.996Z,336
2022-11-05T04:12:10.750Z,336
2022-11-05T04:12:42.830Z,336
2022-11-05T04:13:14.637Z,336
2022-11-05T04:13:46.665Z,336
2022-11-05T04:14:19.393Z,336
2022-11-05T04:14:50.686Z,336
2022-11-05T04:15:26.029Z,336
2022-11-05T04:15:39.089Z,336
2022-11-05T04:16:22.597Z,336
2022-11-05T04:16:54.531Z,336
2022-11-05T04:17:26.822Z,336
2022-11-05T04:17:58.482Z,336
2022-11-05T04:18:33.230Z,336
2022-11-05T04:19:03.164Z,336
2022-11-05T04:19:34.550Z,336
2022-11-05T04:20:06.588Z,336
2022-11-05T04:20:38.699Z,336
2022-11-05T04:20:59.702Z,336
2022-11-05T04:21:38.599Z,336
2022-11-05T04:22:10.385Z,336
2022-11-05T04:22:42.382Z,336
2022-11-05T04:23:14.252Z,336
2022-11-05T04:23:46.312Z,335
2022-11-05T04:24:18.363Z,336
2022-11-05T04:24:50.029Z,335
2022-11-05T04:25:22.445Z,335
2022-11-05T04:25:38.533Z,335
2022-11-05T04:26:10.221Z,336
2022-11-05T04:26:26.295Z,336
2022-11-05T04:26:58.320Z,336
2022-11-05T04:27:30.011Z,336
2022-11-05T04:28:02.818Z,336
2022-11-05T04:28:34.190Z,336
2022-11-05T04:29:07.986Z,336
2022-11-05T04:29:38.342Z,336
2022-11-05T04:30:11.258Z,336
2022-11-05T04:30:42.171Z,336
2022-11-05T04:31:13.950Z,336
2022-11-05T04:31:45.859Z,336
2022-11-05T04:32:18.203Z,336
2022-11-05T04:32:49.873Z,336
2022-11-05T04:33:21.809Z,336
2022-11-05T04:33:38.117Z,336
2022-11-05T04:34:21.826Z,336
2022-11-05T04:34:53.870Z,335
2022-11-05T04:35:26.149Z,335
2022-11-05T04:35:57.796Z,335
2022-11-05T04:36:29.746Z,335
2022-11-05T04:37:02.121Z,335
2022-11-05T04:37:33.725Z,335
2022-11-05T04:38:05.786Z,291
2022-11-05T04:38:37.964Z,274
2022-11-05T04:39:09.753Z,276
2022-11-05T04:39:41.852Z,265
2022-11-05T04:40:13.859Z,291
2022-11-05T04:40:45.653Z,286
2022-11-05T04:41:17.808Z,287
2022-11-05T04:41:49.655Z,289
2022-11-05T04:42:21.294Z,288
2022-11-05T04:42:53.441Z,288
2022-11-05T04:43:14.868Z,289
2022-11-05T04:43:53.413Z,288
2022-11-05T04:44:25.569Z,262
2022-11-05T04:44:57.403Z,293
2022-11-05T04:45:29.679Z,292
2022-11-05T04:46:01.620Z,277
2022-11-05T04:46:33.374Z,282
2022-11-05T04:47:05.266Z,286
2022-11-05T04:47:37.332Z,288
2022-11-05T04:47:53.350Z,288
2022-11-05T04:48:30.287Z,289
2022-11-05T04:49:09.282Z,290
2022-11-05T04:49:41.329Z,282
2022-11-05T04:50:13.360Z,291
2022-11-05T04:50:45.158Z,284
2022-11-05T04:51:17.218Z,284
2022-11-05T04:51:49.182Z,284
2022-11-05T04:52:21.034Z,284
2022-11-05T04:52:37.371Z,284
2022-11-05T04:53:21.076Z,284
2022-11-05T04:53:53.057Z,284
2022-11-05T04:54:24.952Z,284
2022-11-05T04:54:57.195Z,284
2022-11-05T04:55:29.195Z,285
2022-11-05T04:56:00.961Z,284
2022-11-05T04:56:32.712Z,284
2022-11-05T04:57:05.164Z,285
2022-11-05T04:57:36.952Z,290
2022-11-05T04:58:09.154Z,291
2022-11-05T04:58:40.873Z,291
2022-11-05T04:59:12.727Z,300
2022-11-05T04:59:44.737Z,300
2022-11-05T05:00:18.313Z,300
2022-11-05T05:00:48.821Z,300
2022-11-05T05:01:20.865Z,299
2022-11-05T05:01:36.950Z,300
2022-11-05T05:02:08.925Z,299
2022-11-05T05:02:24.759Z,299
2022-11-05T05:02:56.635Z,299
2022-11-05T05:03:28.820Z,300
2022-11-05T05:04:00.702Z,299
2022-11-05T05:04:32.654Z,294
2022-11-05T05:05:05.110Z,292
2022-11-05T05:05:36.497Z,292
2022-11-05T05:05:53.948Z,292
2022-11-05T05:06:24.469Z,292
2022-11-05T05:07:08.672Z,292
2022-11-05T05:07:40.514Z,292
2022-11-05T05:08:12.471Z,274
2022-11-05T05:08:44.425Z,275
2022-11-05T05:09:16.527Z,275
2022-11-05T05:09:48.458Z,275
2022-11-05T05:10:25.535Z,275
2022-11-05T05:10:36.534Z,286
2022-11-05T05:11:20.315Z,282
2022-11-05T05:11:52.420Z,282
2022-11-05T05:12:24.187Z,290
2022-11-05T05:12:56.191Z,288
2022-11-05T05:13:28.382Z,288
2022-11-05T05:14:00.214Z,288
2022-11-05T05:14:32.074Z,268
2022-11-05T05:15:06.291Z,268
2022-11-05T05:15:36.199Z,268
2022-11-05T05:16:08.392Z,269
2022-11-05T05:16:39.994Z,268
2022-11-05T05:17:12.181Z,268
2022-11-05T05:17:44.071Z,268
2022-11-05T05:18:16.007Z,268
2022-11-05T05:18:48.135Z,268
2022-11-05T05:19:19.897Z,268
2022-11-05T05:19:36.073Z,268
2022-11-05T05:20:08.246Z,270
2022-11-05T05:20:24.017Z,270
2022-11-05T05:20:56.008Z,270
2022-11-05T05:21:27.999Z,275
2022-11-05T05:21:59.843Z,276
2022-11-05T05:22:31.869Z,276
2022-11-05T05:23:04.020Z,274
2022-11-05T05:23:35.861Z,275
2022-11-05T05:23:51.856Z,274
2022-11-05T05:24:23.663Z,274
2022-11-05T05:25:08.354Z,274
2022-11-05T05:25:39.682Z,274
2022-11-05T05:26:11.859Z,280
2022-11-05T05:26:43.713Z,281
2022-11-05T05:27:15.705Z,280
2022-11-05T05:27:47.572Z,280
2022-11-05T05:28:19.565Z,280
2022-11-05T05:28:51.588Z,280
2022-11-05T05:29:28.476Z,280
2022-11-05T05:29:55.473Z,280
2022-11-05T05:30:28.105Z,280
2022-11-05T05:30:59.421Z,280
2022-11-05T05:31:31.514Z,280
2022-11-05T05:32:04.162Z,280
2022-11-05T05:32:35.345Z,280
2022-11-05T05:32:51.517Z,280
2022-11-05T05:33:35.417Z,281
2022-11-05T05:34:07.248Z,282
2022-11-05T05:34:23.332Z,292
2022-11-05T05:34:55.452Z,293
2022-11-05T05:35:39.709Z,293
2022-11-05T05:36:11.754Z,293
2022-11-05T05:36:43.152Z,293
2022-11-05T05:37:15.141Z,293
2022-11-05T05:37:47.303Z,293
2022-11-05T05:38:19.280Z,293
2022-11-05T05:38:51.079Z,293
2022-11-05T05:39:07.392Z,293
2022-11-05T05:39:50.992Z,292
2022-11-05T05:40:07.569Z,293
2022-11-05T05:40:50.987Z,293
2022-11-05T05:41:22.994Z,293
2022-11-05T05:41:54.835Z,292
2022-11-05T05:42:27.068Z,292
2022-11-05T05:42:59.066Z,292
2022-11-05T05:43:30.891Z,287
2022-11-05T05:44:03.430Z,275
2022-11-05T05:44:34.799Z,276
2022-11-05T05:44:51.014Z,276
2022-11-05T05:45:23.132Z,276
2022-11-05T05:46:06.921Z,276
2022-11-05T05:46:38.612Z,277
2022-11-05T05:47:10.921Z,276
2022-11-05T05:47:42.920Z,276
2022-11-05T05:48:14.819Z,276
2022-11-05T05:48:46.445Z,276
2022-11-05T05:49:18.986Z,276
2022-11-05T05:49:50.812Z,276
2022-11-05T05:50:22.997Z,276
2022-11-05T05:50:54.581Z,276
2022-11-05T05:51:26.616Z,276
2022-11-05T05:51:58.779Z,276
2022-11-05T05:52:30.716Z,276
2022-11-05T05:53:03.080Z,276
2022-11-05T05:53:34.568Z,276
2022-11-05T05:53:50.620Z,276
2022-11-05T05:54:38.297Z,276
2022-11-05T05:55:06.762Z,276
2022-11-05T05:55:38.601Z,276
2022-11-05T05:56:10.406Z,276
2022-11-05T05:56:42.537Z,276
2022-11-05T05:57:14.324Z,276
2022-11-05T05:57:46.141Z,276
2022-11-05T05:58:18.376Z,276
2022-11-05T05:58:34.394Z,276
2022-11-05T05:59:06.292Z,276
2022-11-05T05:59:22.327Z,276
2022-11-05T05:59:54.173Z,276
2022-11-05T06:00:27.054Z,276
2022-11-05T06:00:58.386Z,276
2022-11-05T06:01:30.305Z,276
2022-11-05T06:02:02.711Z,276
2022-11-05T06:02:34.276Z,276
2022-11-05T06:02:50.339Z,276
2022-11-05T06:03:22.170Z,276
2022-11-05T06:04:06.063Z,276
2022-11-05T06:04:38.226Z,276
2022-11-05T06:05:10.230Z,276
2022-11-05T06:05:42.220Z,276
2022-11-05T06:06:14.046Z,276
2022-11-05T06:06:45.897Z,276
2022-11-05T06:07:18.165Z,276
2022-11-05T06:07:37.273Z,276
2022-11-05T06:08:18.015Z,300
2022-11-05T06:08:49.829Z,300
2022-11-05T06:09:21.827Z,300
2022-11-05T06:09:53.828Z,300
2022-11-05T06:10:26.024Z,300
2022-11-05T06:10:58.062Z,300
2022-11-05T06:11:29.698Z,300
2022-11-05T06:12:02.143Z,299
2022-11-05T06:12:33.864Z,300
2022-11-05T06:13:05.880Z,300
2022-11-05T06:13:37.697Z,300
2022-11-05T06:14:09.628Z,300
2022-11-05T06:14:41.741Z,300
2022-11-05T06:15:14.645Z,300
2022-11-05T06:15:45.468Z,300
2022-11-05T06:16:17.657Z,300
2022-11-05T06:16:33.686Z,300
2022-11-05T06:17:05.918Z,300
2022-11-05T06:17:21.602Z,300
2022-11-05T06:17:53.425Z,300
2022-11-05T06:18:25.446Z,300
2022-11-05T06:18:57.480Z,300
2022-11-05T06:19:29.468Z,300
2022-11-05T06:20:01.776Z,300
2022-11-05T06:20:33.450Z,300
2022-11-05T06:21:05.714Z,300
2022-11-05T06:21:37.461Z,300
2022-11-05T06:22:09.291Z,300
2022-11-05T06:22:41.449Z,300
2022-11-05T06:23:13.716Z,300
2022-11-05T06:23:45.265Z,300
2022-11-05T06:24:17.061Z,300
2022-11-05T06:24:49.259Z,300
2022-11-05T06:25:05.921Z,300
2022-11-05T06:25:40.987Z,300
2022-11-05T06:26:21.235Z,300
2022-11-05T06:26:53.012Z,300
2022-11-05T06:27:25.182Z,300
2022-11-05T06:27:57.029Z,300
2022-11-05T06:28:29.344Z,300
2022-11-05T06:29:01.275Z,300
2022-11-05T06:29:33.017Z,300
2022-11-05T06:30:06.597Z,300
2022-11-05T06:30:37.195Z,300
2022-11-05T06:31:08.883Z,300
2022-11-05T06:31:41.293Z,300
2022-11-05T06:32:12.964Z,300
2022-11-05T06:32:45.142Z,300
2022-11-05T06:33:16.954Z,300
2022-11-05T06:33:33.098Z,300
2022-11-05T06:34:05.209Z,300
2022-11-05T06:34:20.950Z,300
2022-11-05T06:34:52.964Z,300
2022-11-05T06:35:30.523Z,300
2022-11-05T06:35:56.938Z,300
2022-11-05T06:36:29.009Z,300
2022-11-05T06:37:01.072Z,300
2022-11-05T06:37:32.945Z,300
2022-11-05T06:37:49.270Z,300
2022-11-05T06:38:20.957Z,299
2022-11-05T06:39:05.102Z,299
2022-11-05T06:39:36.901Z,299
2022-11-05T06:40:09.229Z,300
2022-11-05T06:40:40.923Z,300
2022-11-05T06:41:12.841Z,300
2022-11-05T06:42:11.845Z,300
2022-11-05T06:42:21.742Z,300
2022-11-05T06:42:32.800Z,300
2022-11-05T06:43:16.455Z,299
2022-11-05T06:43:48.988Z,299
2022-11-05T06:44:20.644Z,299
2022-11-05T06:44:52.522Z,299
2022-11-05T06:45:24.869Z,299
2022-11-05T06:45:56.655Z,300
2022-11-05T06:46:28.793Z,300
2022-11-05T06:47:00.411Z,300
2022-11-05T06:47:32.420Z,300
2022-11-05T06:47:48.881Z,300
2022-11-05T06:48:32.418Z,300
2022-11-05T06:49:04.791Z,300
2022-11-05T06:49:36.203Z,300
2022-11-05T06:50:08.690Z,300
2022-11-05T06:50:40.417Z,300
2022-11-05T06:51:12.312Z,300
2022-11-05T06:51:44.070Z,300
2022-11-05T06:52:16.184Z,300
2022-11-05T06:52:35.885Z,300
2022-11-05T06:53:04.538Z,300
2022-11-05T06:53:20.136Z,300
2022-11-05T06:53:51.959Z,300
2022-11-05T06:54:24.178Z,300
2022-11-05T06:54:56.141Z,300
2022-11-05T06:55:28.557Z,300
2022-11-05T06:56:00.006Z,300
2022-11-05T06:56:32.029Z,300
2022-11-05T06:57:04.491Z,300
2022-11-05T06:57:36.072Z,300
2022-11-05T06:58:08.032Z,300
2022-11-05T06:58:39.997Z,300
2022-11-05T06:59:12.032Z,300
2022-11-05T06:59:43.833Z,292
2022-11-05T07:00:17.209Z,279
2022-11-05T07:00:31.932Z,279
2022-11-05T07:01:15.899Z,288
2022-11-05T07:01:48.311Z,281
2022-11-05T07:02:19.867Z,281
2022-11-05T07:02:51.702Z,281
2022-11-05T07:03:08.126Z,281
2022-11-05T07:03:39.640Z,281
2022-11-05T07:04:23.646Z,281
2022-11-05T07:04:55.786Z,281
2022-11-05T07:05:28.223Z,281
2022-11-05T07:05:59.532Z,281
2022-11-05T07:06:36.696Z,281
2022-11-05T07:07:04.288Z,281
2022-11-05T07:07:35.439Z,281
2022-11-05T07:08:07.560Z,281
2022-11-05T07:08:39.578Z,281